LFLY/LYN METAR and TAF weather

Enter ICAO airport designator
Station Type Date Time Source
LFLY METAR 2019/12/12 17:00 UTC NOAA

LFLY 121700Z AUTO 17012KT 9999 FEW050 OVC078 06/M00 Q1001 BECMG 18015G25KT


Station Type Date Time Source
LFLY Decoded METAR 2019/12/12 17:00 UTC NOAA

Lyon / Bron, France (LFLY) 45-43N 004-57E 201M
Dec 12, 2019 - 12:00 PM EST / 2019.12.12 1700 UTC
Wind: from the S (170 degrees) at 14 MPH (12 KT):0
Visibility: greater than 7 mile(s):0
Sky conditions: overcast
Temperature: 42 F (6 C)
Dew Point: 32 F (0 C)
Relative Humidity: 65%
Pressure (altimeter): 29.56 in. Hg (1001 hPa)
ob: LFLY 121700Z AUTO 17012KT 9999 FEW050 OVC078 06/M00 Q1001 BECMG 18015G25KT
cycle: 17

Station Type Date Time Source
LFLY TAF 2019/12/12 12:21 UTC NOAA

TAF LFLY 121100Z 1212/1312 16010KT CAVOK
BECMG 1218/1220 18015G25KT -RA OVC040
TEMPO 1221/1307 18025G38KT
TEMPO 1307/1308 27015G25KT 3000 RA SCT010 SCT030TCU OVC040
FM130900 28010KT 9999 NSW FEW025TCU SCT030
TEMPO 1309/1312 28015G30KT 4000 SHRA BKN025TCU PROB30
TEMPO 1311/1312 30020G40KT 3000 TSRAGS SCT010 SCT020CB BKN025TCU

Example: see airport list